sensor_id;sensor_type;location;lat;lon;timestamp;P1;durP1;ratioP1;P2;durP2;ratioP2
5690;SDS011;2870;42.680;23.364;2022-09-04T00:01:54;18.23;;;14.30;;
5690;SDS011;2870;42.680;23.364;2022-09-04T00:04:33;21.60;;;15.30;;
5690;SDS011;2870;42.680;23.364;2022-09-04T00:07:11;20.37;;;15.53;;
5690;SDS011;2870;42.680;23.364;2022-09-04T00:09:50;20.57;;;15.73;;
5690;SDS011;2870;42.680;23.364;2022-09-04T00:12:24;19.53;;;15.40;;
5690;SDS011;2870;42.680;23.364;2022-09-04T00:14:57;28.13;;;17.27;;
5690;SDS011;2870;42.680;23.364;2022-09-04T00:17:30;19.30;;;14.93;;
5690;SDS011;2870;42.680;23.364;2022-09-04T00:20:04;19.43;;;15.70;;
5690;SDS011;2870;42.680;23.364;2022-09-04T00:22:38;19.90;;;15.10;;
5690;SDS011;2870;42.680;23.364;2022-09-04T00:25:14;21.90;;;14.87;;
5690;SDS011;2870;42.680;23.364;2022-09-04T00:27:48;22.03;;;14.37;;
5690;SDS011;2870;42.680;23.364;2022-09-04T00:30:20;23.37;;;15.23;;
5690;SDS011;2870;42.680;23.364;2022-09-04T00:32:50;25.80;;;15.13;;
5690;SDS011;2870;42.680;23.364;2022-09-04T00:35:23;21.47;;;15.47;;
5690;SDS011;2870;42.680;23.364;2022-09-04T00:37:57;20.80;;;14.90;;
5690;SDS011;2870;42.680;23.364;2022-09-04T00:40:29;29.00;;;15.80;;
5690;SDS011;2870;42.680;23.364;2022-09-04T00:46:08;19.33;;;15.07;;
5690;SDS011;2870;42.680;23.364;2022-09-04T00:48:57;24.37;;;14.30;;
5690;SDS011;2870;42.680;23.364;2022-09-04T00:51:51;21.50;;;14.80;;
5690;SDS011;2870;42.680;23.364;2022-09-04T01:00:25;20.63;;;15.23;;
5690;SDS011;2870;42.680;23.364;2022-09-04T01:06:03;26.80;;;14.63;;
5690;SDS011;2870;42.680;23.364;2022-09-04T01:08:46;26.90;;;14.77;;
5690;SDS011;2870;42.680;23.364;2022-09-04T01:11:33;29.27;;;13.80;;
5690;SDS011;2870;42.680;23.364;2022-09-04T01:14:10;22.80;;;16.80;;
5690;SDS011;2870;42.680;23.364;2022-09-04T01:16:45;24.70;;;17.70;;
5690;SDS011;2870;42.680;23.364;2022-09-04T01:19:22;27.93;;;17.50;;
5690;SDS011;2870;42.680;23.364;2022-09-04T01:22:11;20.30;;;15.10;;
5690;SDS011;2870;42.680;23.364;2022-09-04T01:25:05;24.47;;;16.07;;
5690;SDS011;2870;42.680;23.364;2022-09-04T01:27:49;27.17;;;17.30;;
5690;SDS011;2870;42.680;23.364;2022-09-04T01:30:25;26.87;;;16.47;;
5690;SDS011;2870;42.680;23.364;2022-09-04T01:32:57;25.53;;;14.60;;
5690;SDS011;2870;42.680;23.364;2022-09-04T01:35:32;23.63;;;16.27;;
5690;SDS011;2870;42.680;23.364;2022-09-04T01:38:08;23.30;;;14.80;;
5690;SDS011;2870;42.680;23.364;2022-09-04T01:40:43;18.67;;;13.83;;
5690;SDS011;2870;42.680;23.364;2022-09-04T01:43:15;19.87;;;14.40;;
5690;SDS011;2870;42.680;23.364;2022-09-04T01:45:50;19.83;;;14.83;;
5690;SDS011;2870;42.680;23.364;2022-09-04T01:48:30;19.13;;;13.60;;
5690;SDS011;2870;42.680;23.364;2022-09-04T01:51:08;21.90;;;15.20;;
5690;SDS011;2870;42.680;23.364;2022-09-04T01:53:44;19.87;;;13.57;;
5690;SDS011;2870;42.680;23.364;2022-09-04T01:56:20;26.37;;;15.17;;
5690;SDS011;2870;42.680;23.364;2022-09-04T01:58:56;19.30;;;14.03;;
5690;SDS011;2870;42.680;23.364;2022-09-04T02:01:34;20.30;;;15.07;;
5690;SDS011;2870;42.680;23.364;2022-09-04T02:04:09;19.00;;;13.53;;
5690;SDS011;2870;42.680;23.364;2022-09-04T02:06:47;22.40;;;14.27;;
5690;SDS011;2870;42.680;23.364;2022-09-04T02:09:26;19.47;;;14.33;;
5690;SDS011;2870;42.680;23.364;2022-09-04T02:12:03;19.80;;;14.77;;
5690;SDS011;2870;42.680;23.364;2022-09-04T02:14:39;20.40;;;14.67;;
5690;SDS011;2870;42.680;23.364;2022-09-04T02:17:12;21.53;;;15.70;;
5690;SDS011;2870;42.680;23.364;2022-09-04T02:19:49;23.73;;;15.50;;
5690;SDS011;2870;42.680;23.364;2022-09-04T02:22:38;24.43;;;14.17;;
5690;SDS011;2870;42.680;23.364;2022-09-04T02:25:13;20.60;;;14.00;;
5690;SDS011;2870;42.680;23.364;2022-09-04T02:27:51;19.30;;;14.20;;
5690;SDS011;2870;42.680;23.364;2022-09-04T02:30:25;24.03;;;15.97;;
5690;SDS011;2870;42.680;23.364;2022-09-04T02:32:59;22.20;;;14.30;;
5690;SDS011;2870;42.680;23.364;2022-09-04T02:35:34;22.50;;;15.73;;
5690;SDS011;2870;42.680;23.364;2022-09-04T02:38:10;24.67;;;14.93;;
5690;SDS011;2870;42.680;23.364;2022-09-04T02:40:49;23.80;;;15.30;;
5690;SDS011;2870;42.680;23.364;2022-09-04T02:43:21;24.13;;;14.40;;
5690;SDS011;2870;42.680;23.364;2022-09-04T02:46:04;23.37;;;14.10;;
5690;SDS011;2870;42.680;23.364;2022-09-04T02:48:42;23.93;;;14.77;;
5690;SDS011;2870;42.680;23.364;2022-09-04T02:51:24;21.00;;;14.50;;
5690;SDS011;2870;42.680;23.364;2022-09-04T02:54:05;22.83;;;15.50;;
5690;SDS011;2870;42.680;23.364;2022-09-04T02:56:38;19.17;;;13.83;;
5690;SDS011;2870;42.680;23.364;2022-09-04T02:59:23;22.63;;;14.37;;
5690;SDS011;2870;42.680;23.364;2022-09-04T03:02:02;26.47;;;15.70;;
5690;SDS011;2870;42.680;23.364;2022-09-04T03:04:32;21.37;;;13.53;;
5690;SDS011;2870;42.680;23.364;2022-09-04T03:07:08;22.50;;;14.27;;
5690;SDS011;2870;42.680;23.364;2022-09-04T03:09:39;18.57;;;13.83;;
5690;SDS011;2870;42.680;23.364;2022-09-04T03:12:17;19.07;;;13.80;;
5690;SDS011;2870;42.680;23.364;2022-09-04T03:14:58;30.50;;;15.13;;
5690;SDS011;2870;42.680;23.364;2022-09-04T03:17:32;19.17;;;14.07;;
5690;SDS011;2870;42.680;23.364;2022-09-04T03:20:07;21.33;;;14.77;;
5690;SDS011;2870;42.680;23.364;2022-09-04T03:22:42;20.33;;;15.40;;
5690;SDS011;2870;42.680;23.364;2022-09-04T03:31:08;25.03;;;16.23;;
5690;SDS011;2870;42.680;23.364;2022-09-04T03:33:45;25.27;;;17.23;;
5690;SDS011;2870;42.680;23.364;2022-09-04T03:36:18;30.40;;;17.30;;
5690;SDS011;2870;42.680;23.364;2022-09-04T03:38:56;27.10;;;17.17;;
5690;SDS011;2870;42.680;23.364;2022-09-04T03:41:29;25.20;;;17.07;;
5690;SDS011;2870;42.680;23.364;2022-09-04T03:44:07;28.73;;;17.63;;
5690;SDS011;2870;42.680;23.364;2022-09-04T03:46:47;29.23;;;17.10;;
5690;SDS011;2870;42.680;23.364;2022-09-04T03:49:27;29.60;;;16.63;;
5690;SDS011;2870;42.680;23.364;2022-09-04T03:52:09;30.10;;;16.17;;
5690;SDS011;2870;42.680;23.364;2022-09-04T03:54:50;34.33;;;19.63;;
5690;SDS011;2870;42.680;23.364;2022-09-04T03:57:43;41.23;;;18.40;;
5690;SDS011;2870;42.680;23.364;2022-09-04T04:00:34;40.40;;;21.27;;
5690;SDS011;2870;42.680;23.364;2022-09-04T04:03:18;44.97;;;24.27;;
5690;SDS011;2870;42.680;23.364;2022-09-04T04:06:03;43.97;;;22.97;;
5690;SDS011;2870;42.680;23.364;2022-09-04T04:08:54;43.40;;;24.20;;
5690;SDS011;2870;42.680;23.364;2022-09-04T04:11:45;47.73;;;21.57;;
5690;SDS011;2870;42.680;23.364;2022-09-04T04:14:34;37.60;;;21.13;;
5690;SDS011;2870;42.680;23.364;2022-09-04T04:17:17;36.43;;;21.60;;
5690;SDS011;2870;42.680;23.364;2022-09-04T04:20:02;29.07;;;19.30;;
5690;SDS011;2870;42.680;23.364;2022-09-04T04:22:45;30.60;;;18.90;;
5690;SDS011;2870;42.680;23.364;2022-09-04T04:25:32;31.87;;;18.37;;
5690;SDS011;2870;42.680;23.364;2022-09-04T04:28:16;27.80;;;18.30;;
5690;SDS011;2870;42.680;23.364;2022-09-04T04:30:53;29.77;;;18.10;;
5690;SDS011;2870;42.680;23.364;2022-09-04T04:33:38;28.53;;;17.80;;
5690;SDS011;2870;42.680;23.364;2022-09-04T04:36:15;27.77;;;17.90;;
5690;SDS011;2870;42.680;23.364;2022-09-04T04:38:55;32.90;;;16.93;;
5690;SDS011;2870;42.680;23.364;2022-09-04T04:41:42;26.60;;;17.27;;
5690;SDS011;2870;42.680;23.364;2022-09-04T04:44:35;25.50;;;16.13;;
5690;SDS011;2870;42.680;23.364;2022-09-04T04:47:41;34.17;;;17.80;;
5690;SDS011;2870;42.680;23.364;2022-09-04T04:50:26;23.20;;;15.70;;
5690;SDS011;2870;42.680;23.364;2022-09-04T04:53:01;23.70;;;16.70;;
5690;SDS011;2870;42.680;23.364;2022-09-04T04:55:42;29.07;;;17.60;;
5690;SDS011;2870;42.680;23.364;2022-09-04T04:58:17;28.37;;;17.23;;
5690;SDS011;2870;42.680;23.364;2022-09-04T05:00:53;35.37;;;17.63;;
5690;SDS011;2870;42.680;23.364;2022-09-04T05:03:32;27.40;;;18.17;;
5690;SDS011;2870;42.680;23.364;2022-09-04T05:06:15;27.57;;;17.53;;
5690;SDS011;2870;42.680;23.364;2022-09-04T05:08:53;32.00;;;17.80;;
5690;SDS011;2870;42.680;23.364;2022-09-04T05:11:28;24.90;;;17.13;;
5690;SDS011;2870;42.680;23.364;2022-09-04T05:14:05;24.63;;;15.83;;
5690;SDS011;2870;42.680;23.364;2022-09-04T05:16:45;28.17;;;16.80;;
5690;SDS011;2870;42.680;23.364;2022-09-04T05:19:20;27.33;;;18.00;;
5690;SDS011;2870;42.680;23.364;2022-09-04T05:21:56;35.60;;;18.53;;
5690;SDS011;2870;42.680;23.364;2022-09-04T05:24:31;25.10;;;17.03;;
5690;SDS011;2870;42.680;23.364;2022-09-04T05:27:06;28.87;;;16.60;;
5690;SDS011;2870;42.680;23.364;2022-09-04T05:29:42;32.23;;;17.20;;
5690;SDS011;2870;42.680;23.364;2022-09-04T05:32:19;24.20;;;15.63;;
5690;SDS011;2870;42.680;23.364;2022-09-04T05:34:58;24.70;;;17.37;;
5690;SDS011;2870;42.680;23.364;2022-09-04T05:37:34;24.17;;;16.47;;
5690;SDS011;2870;42.680;23.364;2022-09-04T05:40:10;30.80;;;18.10;;
5690;SDS011;2870;42.680;23.364;2022-09-04T05:42:56;25.63;;;17.03;;
5690;SDS011;2870;42.680;23.364;2022-09-04T05:45:41;24.53;;;16.60;;
5690;SDS011;2870;42.680;23.364;2022-09-04T05:48:20;33.37;;;18.10;;
5690;SDS011;2870;42.680;23.364;2022-09-04T05:50:56;23.37;;;16.97;;
5690;SDS011;2870;42.680;23.364;2022-09-04T05:53:59;25.97;;;16.67;;
5690;SDS011;2870;42.680;23.364;2022-09-04T05:56:42;31.67;;;17.47;;
5690;SDS011;2870;42.680;23.364;2022-09-04T05:59:36;26.67;;;16.00;;
5690;SDS011;2870;42.680;23.364;2022-09-04T06:05:21;33.10;;;17.67;;
5690;SDS011;2870;42.680;23.364;2022-09-04T06:07:58;30.50;;;18.87;;
5690;SDS011;2870;42.680;23.364;2022-09-04T06:10:34;27.87;;;17.47;;
5690;SDS011;2870;42.680;23.364;2022-09-04T06:16:23;33.97;;;20.33;;
5690;SDS011;2870;42.680;23.364;2022-09-04T06:25:11;29.50;;;20.43;;
5690;SDS011;2870;42.680;23.364;2022-09-04T06:27:56;33.97;;;21.40;;
5690;SDS011;2870;42.680;23.364;2022-09-04T06:30:47;30.93;;;19.13;;
5690;SDS011;2870;42.680;23.364;2022-09-04T06:33:27;32.87;;;21.57;;
5690;SDS011;2870;42.680;23.364;2022-09-04T06:36:14;39.23;;;22.67;;
5690;SDS011;2870;42.680;23.364;2022-09-04T06:39:02;37.90;;;23.73;;
5690;SDS011;2870;42.680;23.364;2022-09-04T06:41:47;38.63;;;24.97;;
5690;SDS011;2870;42.680;23.364;2022-09-04T06:44:31;35.40;;;21.53;;
5690;SDS011;2870;42.680;23.364;2022-09-04T06:47:09;35.67;;;20.77;;
5690;SDS011;2870;42.680;23.364;2022-09-04T06:49:54;33.83;;;22.17;;
5690;SDS011;2870;42.680;23.364;2022-09-04T06:52:37;34.90;;;21.73;;
5690;SDS011;2870;42.680;23.364;2022-09-04T06:55:12;33.73;;;22.37;;
5690;SDS011;2870;42.680;23.364;2022-09-04T06:57:56;31.60;;;20.40;;
5690;SDS011;2870;42.680;23.364;2022-09-04T07:00:45;33.93;;;18.93;;
5690;SDS011;2870;42.680;23.364;2022-09-04T07:03:21;30.20;;;18.53;;
5690;SDS011;2870;42.680;23.364;2022-09-04T07:06:02;31.80;;;19.23;;
5690;SDS011;2870;42.680;23.364;2022-09-04T07:08:40;30.80;;;16.87;;
5690;SDS011;2870;42.680;23.364;2022-09-04T07:11:19;24.83;;;17.20;;
5690;SDS011;2870;42.680;23.364;2022-09-04T07:14:04;35.97;;;15.07;;
5690;SDS011;2870;42.680;23.364;2022-09-04T07:16:48;25.80;;;16.17;;
5690;SDS011;2870;42.680;23.364;2022-09-04T07:19:23;25.20;;;15.23;;
5690;SDS011;2870;42.680;23.364;2022-09-04T07:22:15;22.83;;;15.40;;
5690;SDS011;2870;42.680;23.364;2022-09-04T07:24:58;24.30;;;16.17;;
5690;SDS011;2870;42.680;23.364;2022-09-04T07:27:36;21.20;;;14.60;;
5690;SDS011;2870;42.680;23.364;2022-09-04T07:30:18;21.80;;;14.77;;
5690;SDS011;2870;42.680;23.364;2022-09-04T07:32:47;25.30;;;15.73;;
5690;SDS011;2870;42.680;23.364;2022-09-04T07:35:21;21.53;;;14.73;;
5690;SDS011;2870;42.680;23.364;2022-09-04T07:37:57;21.90;;;15.43;;
5690;SDS011;2870;42.680;23.364;2022-09-04T07:40:29;26.20;;;16.00;;
5690;SDS011;2870;42.680;23.364;2022-09-04T07:43:03;22.10;;;15.17;;
5690;SDS011;2870;42.680;23.364;2022-09-04T07:45:36;20.57;;;14.67;;
5690;SDS011;2870;42.680;23.364;2022-09-04T07:48:14;17.93;;;13.47;;
5690;SDS011;2870;42.680;23.364;2022-09-04T07:50:56;24.20;;;16.40;;
5690;SDS011;2870;42.680;23.364;2022-09-04T07:56:54;22.17;;;16.00;;
5690;SDS011;2870;42.680;23.364;2022-09-04T08:02:32;22.97;;;16.47;;
5690;SDS011;2870;42.680;23.364;2022-09-04T08:05:17;21.20;;;15.73;;
5690;SDS011;2870;42.680;23.364;2022-09-04T08:10:47;29.20;;;18.97;;
5690;SDS011;2870;42.680;23.364;2022-09-04T08:13:33;25.30;;;18.70;;
5690;SDS011;2870;42.680;23.364;2022-09-04T08:16:13;26.37;;;18.00;;
5690;SDS011;2870;42.680;23.364;2022-09-04T08:18:55;25.23;;;17.40;;
5690;SDS011;2870;42.680;23.364;2022-09-04T08:21:29;24.27;;;16.80;;
5690;SDS011;2870;42.680;23.364;2022-09-04T08:27:01;18.40;;;13.10;;
5690;SDS011;2870;42.680;23.364;2022-09-04T08:29:54;21.30;;;13.40;;
5690;SDS011;2870;42.680;23.364;2022-09-04T08:32:40;17.07;;;13.30;;
5690;SDS011;2870;42.680;23.364;2022-09-04T08:35:43;17.67;;;12.30;;
5690;SDS011;2870;42.680;23.364;2022-09-04T08:38:25;16.50;;;11.70;;
5690;SDS011;2870;42.680;23.364;2022-09-04T08:41:13;15.30;;;10.33;;
5690;SDS011;2870;42.680;23.364;2022-09-04T08:47:17;16.13;;;12.00;;
5690;SDS011;2870;42.680;23.364;2022-09-04T08:50:23;15.97;;;11.40;;
5690;SDS011;2870;42.680;23.364;2022-09-04T08:53:24;17.70;;;11.83;;
5690;SDS011;2870;42.680;23.364;2022-09-04T08:56:12;20.20;;;11.67;;
5690;SDS011;2870;42.680;23.364;2022-09-04T09:07:49;10.70;;;8.57;;
5690;SDS011;2870;42.680;23.364;2022-09-04T09:10:48;13.57;;;8.97;;
5690;SDS011;2870;42.680;23.364;2022-09-04T09:13:42;11.57;;;8.13;;
5690;SDS011;2870;42.680;23.364;2022-09-04T09:16:30;11.60;;;9.03;;
5690;SDS011;2870;42.680;23.364;2022-09-04T09:19:08;10.70;;;7.10;;
5690;SDS011;2870;42.680;23.364;2022-09-04T09:21:45;9.73;;;7.23;;
5690;SDS011;2870;42.680;23.364;2022-09-04T09:30:32;15.77;;;7.07;;
5690;SDS011;2870;42.680;23.364;2022-09-04T09:36:27;12.07;;;7.27;;
5690;SDS011;2870;42.680;23.364;2022-09-04T09:45:30;7.20;;;5.67;;
5690;SDS011;2870;42.680;23.364;2022-09-04T09:48:19;8.83;;;6.90;;
5690;SDS011;2870;42.680;23.364;2022-09-04T10:01:03;15.20;;;6.97;;
5690;SDS011;2870;42.680;23.364;2022-09-04T10:03:46;8.83;;;6.80;;
5690;SDS011;2870;42.680;23.364;2022-09-04T10:10:01;8.63;;;6.87;;
5690;SDS011;2870;42.680;23.364;2022-09-04T10:12:49;8.63;;;6.50;;
5690;SDS011;2870;42.680;23.364;2022-09-04T10:16:04;10.10;;;7.60;;
5690;SDS011;2870;42.680;23.364;2022-09-04T10:19:03;9.60;;;6.90;;
5690;SDS011;2870;42.680;23.364;2022-09-04T10:25:14;11.30;;;7.00;;
5690;SDS011;2870;42.680;23.364;2022-09-04T10:31:03;14.07;;;6.77;;
5690;SDS011;2870;42.680;23.364;2022-09-04T10:33:55;8.00;;;6.20;;
5690;SDS011;2870;42.680;23.364;2022-09-04T10:36:35;9.10;;;6.47;;
5690;SDS011;2870;42.680;23.364;2022-09-04T10:39:16;8.80;;;6.80;;
5690;SDS011;2870;42.680;23.364;2022-09-04T10:42:12;9.60;;;6.87;;
5690;SDS011;2870;42.680;23.364;2022-09-04T10:44:57;9.70;;;6.77;;
5690;SDS011;2870;42.680;23.364;2022-09-04T10:53:55;9.40;;;5.90;;
5690;SDS011;2870;42.680;23.364;2022-09-04T10:56:51;10.30;;;6.37;;
5690;SDS011;2870;42.680;23.364;2022-09-04T10:59:37;8.80;;;6.80;;
5690;SDS011;2870;42.680;23.364;2022-09-04T11:02:22;13.40;;;6.27;;
5690;SDS011;2870;42.680;23.364;2022-09-04T11:08:19;12.83;;;6.20;;
5690;SDS011;2870;42.680;23.364;2022-09-04T11:29:46;9.80;;;6.60;;
5690;SDS011;2870;42.680;23.364;2022-09-04T11:38:54;9.47;;;6.10;;
5690;SDS011;2870;42.680;23.364;2022-09-04T11:41:37;8.60;;;6.57;;
5690;SDS011;2870;42.680;23.364;2022-09-04T11:44:42;9.80;;;7.10;;
5690;SDS011;2870;42.680;23.364;2022-09-04T11:47:55;22.13;;;7.30;;
5690;SDS011;2870;42.680;23.364;2022-09-04T11:50:45;6.87;;;5.03;;
5690;SDS011;2870;42.680;23.364;2022-09-04T11:53:30;11.30;;;6.30;;
5690;SDS011;2870;42.680;23.364;2022-09-04T11:56:19;8.43;;;6.50;;
5690;SDS011;2870;42.680;23.364;2022-09-04T11:59:02;13.97;;;5.10;;
5690;SDS011;2870;42.680;23.364;2022-09-04T12:01:54;7.63;;;6.10;;
5690;SDS011;2870;42.680;23.364;2022-09-04T12:04:42;8.83;;;6.00;;
5690;SDS011;2870;42.680;23.364;2022-09-04T12:07:19;8.00;;;6.17;;
5690;SDS011;2870;42.680;23.364;2022-09-04T12:10:10;10.33;;;5.83;;
5690;SDS011;2870;42.680;23.364;2022-09-04T12:12:57;7.00;;;5.27;;
5690;SDS011;2870;42.680;23.364;2022-09-04T12:15:51;6.97;;;5.20;;
5690;SDS011;2870;42.680;23.364;2022-09-04T12:21:35;8.90;;;5.93;;
5690;SDS011;2870;42.680;23.364;2022-09-04T12:24:29;7.20;;;5.00;;
5690;SDS011;2870;42.680;23.364;2022-09-04T12:30:22;10.00;;;4.70;;
5690;SDS011;2870;42.680;23.364;2022-09-04T12:39:14;9.40;;;5.00;;
5690;SDS011;2870;42.680;23.364;2022-09-04T12:42:05;9.10;;;5.67;;
5690;SDS011;2870;42.680;23.364;2022-09-04T12:44:42;7.13;;;5.20;;
5690;SDS011;2870;42.680;23.364;2022-09-04T12:47:27;8.73;;;5.30;;
5690;SDS011;2870;42.680;23.364;2022-09-04T12:53:06;7.87;;;4.77;;
5690;SDS011;2870;42.680;23.364;2022-09-04T12:55:53;7.70;;;5.20;;
5690;SDS011;2870;42.680;23.364;2022-09-04T12:58:29;8.60;;;5.20;;
5690;SDS011;2870;42.680;23.364;2022-09-04T13:01:10;11.73;;;4.87;;
5690;SDS011;2870;42.680;23.364;2022-09-04T13:03:44;12.77;;;5.37;;
5690;SDS011;2870;42.680;23.364;2022-09-04T13:06:24;6.77;;;4.87;;
5690;SDS011;2870;42.680;23.364;2022-09-04T13:09:05;10.13;;;5.27;;
5690;SDS011;2870;42.680;23.364;2022-09-04T13:11:47;9.60;;;4.60;;
5690;SDS011;2870;42.680;23.364;2022-09-04T13:14:39;7.90;;;5.10;;
5690;SDS011;2870;42.680;23.364;2022-09-04T13:17:32;7.70;;;5.30;;
5690;SDS011;2870;42.680;23.364;2022-09-04T13:20:15;7.70;;;5.20;;
5690;SDS011;2870;42.680;23.364;2022-09-04T13:22:54;7.23;;;5.23;;
5690;SDS011;2870;42.680;23.364;2022-09-04T13:25:38;6.73;;;5.00;;
5690;SDS011;2870;42.680;23.364;2022-09-04T13:28:19;8.20;;;6.23;;
5690;SDS011;2870;42.680;23.364;2022-09-04T13:31:03;7.77;;;5.30;;
5690;SDS011;2870;42.680;23.364;2022-09-04T13:33:50;7.73;;;5.50;;
5690;SDS011;2870;42.680;23.364;2022-09-04T13:36:28;9.20;;;4.57;;
5690;SDS011;2870;42.680;23.364;2022-09-04T13:45:06;6.50;;;5.00;;
5690;SDS011;2870;42.680;23.364;2022-09-04T13:47:39;8.60;;;4.40;;
5690;SDS011;2870;42.680;23.364;2022-09-04T13:50:15;8.10;;;4.90;;
5690;SDS011;2870;42.680;23.364;2022-09-04T13:52:47;8.73;;;5.53;;
5690;SDS011;2870;42.680;23.364;2022-09-04T13:55:21;6.10;;;4.60;;
5690;SDS011;2870;42.680;23.364;2022-09-04T13:57:53;9.93;;;4.50;;
5690;SDS011;2870;42.680;23.364;2022-09-04T14:00:27;7.17;;;5.10;;
5690;SDS011;2870;42.680;23.364;2022-09-04T14:02:58;6.33;;;4.63;;
5690;SDS011;2870;42.680;23.364;2022-09-04T14:05:27;6.87;;;4.67;;
5690;SDS011;2870;42.680;23.364;2022-09-04T14:07:58;6.33;;;4.30;;
5690;SDS011;2870;42.680;23.364;2022-09-04T14:10:32;7.90;;;5.00;;
5690;SDS011;2870;42.680;23.364;2022-09-04T14:13:19;13.97;;;5.50;;
5690;SDS011;2870;42.680;23.364;2022-09-04T14:16:00;6.30;;;4.53;;
5690;SDS011;2870;42.680;23.364;2022-09-04T14:18:36;7.83;;;4.47;;
5690;SDS011;2870;42.680;23.364;2022-09-04T14:21:23;8.30;;;4.60;;
5690;SDS011;2870;42.680;23.364;2022-09-04T14:24:03;10.43;;;5.50;;
5690;SDS011;2870;42.680;23.364;2022-09-04T14:26:38;6.90;;;5.23;;
5690;SDS011;2870;42.680;23.364;2022-09-04T14:29:15;6.73;;;4.80;;
5690;SDS011;2870;42.680;23.364;2022-09-04T14:31:51;7.57;;;5.00;;
5690;SDS011;2870;42.680;23.364;2022-09-04T14:34:29;6.80;;;4.87;;
5690;SDS011;2870;42.680;23.364;2022-09-04T14:37:07;8.40;;;4.73;;
5690;SDS011;2870;42.680;23.364;2022-09-04T14:39:47;8.33;;;5.20;;
5690;SDS011;2870;42.680;23.364;2022-09-04T14:42:31;6.90;;;5.13;;
5690;SDS011;2870;42.680;23.364;2022-09-04T14:45:14;8.80;;;6.00;;
5690;SDS011;2870;42.680;23.364;2022-09-04T14:47:49;6.67;;;4.30;;
5690;SDS011;2870;42.680;23.364;2022-09-04T14:50:20;7.43;;;4.97;;
5690;SDS011;2870;42.680;23.364;2022-09-04T14:52:53;6.83;;;4.80;;
5690;SDS011;2870;42.680;23.364;2022-09-04T14:55:23;7.70;;;4.73;;
5690;SDS011;2870;42.680;23.364;2022-09-04T14:57:52;6.60;;;4.67;;
5690;SDS011;2870;42.680;23.364;2022-09-04T15:00:25;6.90;;;5.10;;
5690;SDS011;2870;42.680;23.364;2022-09-04T15:02:56;13.63;;;4.57;;
5690;SDS011;2870;42.680;23.364;2022-09-04T15:05:30;7.13;;;4.77;;
5690;SDS011;2870;42.680;23.364;2022-09-04T15:08:01;6.90;;;4.63;;
5690;SDS011;2870;42.680;23.364;2022-09-04T15:10:36;9.43;;;4.97;;
5690;SDS011;2870;42.680;23.364;2022-09-04T15:13:28;7.23;;;5.07;;
5690;SDS011;2870;42.680;23.364;2022-09-04T15:16:07;7.60;;;5.47;;
5690;SDS011;2870;42.680;23.364;2022-09-04T15:18:51;9.00;;;5.60;;
5690;SDS011;2870;42.680;23.364;2022-09-04T15:21:37;8.50;;;6.00;;
5690;SDS011;2870;42.680;23.364;2022-09-04T15:24:19;7.80;;;4.77;;
5690;SDS011;2870;42.680;23.364;2022-09-04T15:26:52;7.77;;;5.93;;
5690;SDS011;2870;42.680;23.364;2022-09-04T15:29:26;6.67;;;4.83;;
5690;SDS011;2870;42.680;23.364;2022-09-04T15:32:02;8.37;;;5.00;;
5690;SDS011;2870;42.680;23.364;2022-09-04T15:34:31;7.40;;;5.00;;
5690;SDS011;2870;42.680;23.364;2022-09-04T15:37:13;6.93;;;5.23;;
5690;SDS011;2870;42.680;23.364;2022-09-04T15:39:46;6.60;;;4.60;;
5690;SDS011;2870;42.680;23.364;2022-09-04T15:42:32;7.70;;;4.67;;
5690;SDS011;2870;42.680;23.364;2022-09-04T15:45:04;10.60;;;4.83;;
5690;SDS011;2870;42.680;23.364;2022-09-04T15:47:54;7.60;;;4.80;;
5690;SDS011;2870;42.680;23.364;2022-09-04T15:50:32;7.40;;;4.80;;
5690;SDS011;2870;42.680;23.364;2022-09-04T15:53:09;9.40;;;5.60;;
5690;SDS011;2870;42.680;23.364;2022-09-04T15:55:40;8.70;;;5.20;;
5690;SDS011;2870;42.680;23.364;2022-09-04T15:58:12;6.43;;;4.93;;
5690;SDS011;2870;42.680;23.364;2022-09-04T16:01:05;8.30;;;5.00;;
5690;SDS011;2870;42.680;23.364;2022-09-04T16:03:44;5.63;;;4.03;;
5690;SDS011;2870;42.680;23.364;2022-09-04T16:06:20;8.77;;;5.07;;
5690;SDS011;2870;42.680;23.364;2022-09-04T16:08:55;10.40;;;4.90;;
5690;SDS011;2870;42.680;23.364;2022-09-04T16:11:28;6.43;;;4.63;;
5690;SDS011;2870;42.680;23.364;2022-09-04T16:14:00;7.03;;;5.20;;
5690;SDS011;2870;42.680;23.364;2022-09-04T16:16:31;7.10;;;5.30;;
5690;SDS011;2870;42.680;23.364;2022-09-04T16:19:13;8.30;;;6.00;;
5690;SDS011;2870;42.680;23.364;2022-09-04T16:21:49;8.10;;;6.20;;
5690;SDS011;2870;42.680;23.364;2022-09-04T16:24:28;7.93;;;5.60;;
5690;SDS011;2870;42.680;23.364;2022-09-04T16:27:03;6.70;;;4.70;;
5690;SDS011;2870;42.680;23.364;2022-09-04T16:29:33;10.77;;;6.13;;
5690;SDS011;2870;42.680;23.364;2022-09-04T16:32:03;9.87;;;5.20;;
5690;SDS011;2870;42.680;23.364;2022-09-04T16:34:37;8.03;;;5.80;;
5690;SDS011;2870;42.680;23.364;2022-09-04T16:37:12;8.00;;;6.27;;
5690;SDS011;2870;42.680;23.364;2022-09-04T16:39:47;7.87;;;5.67;;
5690;SDS011;2870;42.680;23.364;2022-09-04T16:42:30;8.70;;;6.43;;
5690;SDS011;2870;42.680;23.364;2022-09-04T16:45:06;8.87;;;6.37;;
5690;SDS011;2870;42.680;23.364;2022-09-04T16:47:42;7.40;;;5.20;;
5690;SDS011;2870;42.680;23.364;2022-09-04T16:50:16;8.43;;;6.30;;
5690;SDS011;2870;42.680;23.364;2022-09-04T16:53:01;8.90;;;6.20;;
5690;SDS011;2870;42.680;23.364;2022-09-04T16:55:36;7.47;;;5.03;;
5690;SDS011;2870;42.680;23.364;2022-09-04T16:58:18;8.87;;;5.60;;
5690;SDS011;2870;42.680;23.364;2022-09-04T17:00:56;8.07;;;5.03;;
5690;SDS011;2870;42.680;23.364;2022-09-04T17:03:37;8.40;;;6.00;;
5690;SDS011;2870;42.680;23.364;2022-09-04T17:06:11;13.97;;;6.07;;
5690;SDS011;2870;42.680;23.364;2022-09-04T17:08:45;6.87;;;5.13;;
5690;SDS011;2870;42.680;23.364;2022-09-04T17:11:18;9.47;;;6.03;;
5690;SDS011;2870;42.680;23.364;2022-09-04T17:13:54;8.53;;;6.10;;
5690;SDS011;2870;42.680;23.364;2022-09-04T17:16:30;10.10;;;6.07;;
5690;SDS011;2870;42.680;23.364;2022-09-04T17:19:01;11.23;;;7.00;;
5690;SDS011;2870;42.680;23.364;2022-09-04T17:21:33;8.87;;;6.03;;
5690;SDS011;2870;42.680;23.364;2022-09-04T17:24:23;12.83;;;6.77;;
5690;SDS011;2870;42.680;23.364;2022-09-04T17:26:58;9.63;;;6.27;;
5690;SDS011;2870;42.680;23.364;2022-09-04T17:29:30;9.00;;;6.53;;
5690;SDS011;2870;42.680;23.364;2022-09-04T17:32:02;10.60;;;6.30;;
5690;SDS011;2870;42.680;23.364;2022-09-04T17:34:47;11.17;;;6.60;;
5690;SDS011;2870;42.680;23.364;2022-09-04T17:37:21;10.87;;;7.90;;
5690;SDS011;2870;42.680;23.364;2022-09-04T17:39:55;12.00;;;7.40;;
5690;SDS011;2870;42.680;23.364;2022-09-04T17:42:27;11.80;;;7.57;;
5690;SDS011;2870;42.680;23.364;2022-09-04T17:45:01;10.10;;;7.23;;
5690;SDS011;2870;42.680;23.364;2022-09-04T17:47:34;17.40;;;7.73;;
5690;SDS011;2870;42.680;23.364;2022-09-04T17:50:07;15.23;;;11.57;;
5690;SDS011;2870;42.680;23.364;2022-09-04T17:52:53;15.23;;;10.83;;
5690;SDS011;2870;42.680;23.364;2022-09-04T17:55:24;13.43;;;8.50;;
5690;SDS011;2870;42.680;23.364;2022-09-04T17:57:55;12.93;;;8.07;;
5690;SDS011;2870;42.680;23.364;2022-09-04T18:00:29;11.43;;;8.67;;
5690;SDS011;2870;42.680;23.364;2022-09-04T18:03:03;13.37;;;8.10;;
5690;SDS011;2870;42.680;23.364;2022-09-04T18:05:38;15.23;;;8.33;;
5690;SDS011;2870;42.680;23.364;2022-09-04T18:08:12;10.70;;;7.60;;
5690;SDS011;2870;42.680;23.364;2022-09-04T18:10:49;13.70;;;9.03;;
5690;SDS011;2870;42.680;23.364;2022-09-04T18:13:22;14.00;;;9.47;;
5690;SDS011;2870;42.680;23.364;2022-09-04T18:15:56;11.50;;;9.00;;
5690;SDS011;2870;42.680;23.364;2022-09-04T18:18:36;11.10;;;8.37;;
5690;SDS011;2870;42.680;23.364;2022-09-04T18:21:08;11.83;;;9.17;;
5690;SDS011;2870;42.680;23.364;2022-09-04T18:23:45;13.70;;;9.40;;
5690;SDS011;2870;42.680;23.364;2022-09-04T18:26:18;13.70;;;8.57;;
5690;SDS011;2870;42.680;23.364;2022-09-04T18:28:51;13.73;;;9.63;;